Terminal Aerodrome Forecast
Issued by NWS Upton, NY

Home | Current Version | Previous Version | Text Only | Print | Product List | Glossary On
Versions: 1 2 3 4 5 6 7 8 9 10 11 12 13 14 15 16 17 18 19 20 21 22 23 24 25 26 27 28
128
FTUS41 KOKX 240535
TAFLGA
TAF
KLGA 240535Z 2406/2506 VRB05KT 6SM -RA OVC070
     FM241000 35006KT 5SM -RA BR BKN015
     FM241600 05005KT P6SM VCSH BKN025
     FM241900 05005KT P6SM VCSH SCT030 BKN070
     FM242100 16007KT P6SM VCSH FEW030 BKN080
     FM250000 26006KT P6SM SCT120=

USA.gov is the U.S. government's official web portal to all federal, state and local government web resources and services.